sensor_id;sensor_type;location;lat;lon;timestamp;pressure;altitude;pressure_sealevel;temperature
20848;BMP180;10584;50.854;12.902;2023-06-22T00:05:22;98456.00;;;18.30
20848;BMP180;10584;50.854;12.902;2023-06-22T00:11:20;98459.00;;;18.30
20848;BMP180;10584;50.854;12.902;2023-06-22T00:16:54;98444.00;;;18.20
20848;BMP180;10584;50.854;12.902;2023-06-22T00:22:47;98436.00;;;18.10
20848;BMP180;10584;50.854;12.902;2023-06-22T00:28:36;98439.00;;;18.10
20848;BMP180;10584;50.854;12.902;2023-06-22T00:34:12;98440.00;;;18.00
20848;BMP180;10584;50.854;12.902;2023-06-22T00:39:40;98452.00;;;17.90
20848;BMP180;10584;50.854;12.902;2023-06-22T00:45:02;98447.00;;;17.90
20848;BMP180;10584;50.854;12.902;2023-06-22T00:50:25;98439.00;;;17.80
20848;BMP180;10584;50.854;12.902;2023-06-22T00:55:55;98435.00;;;17.70
20848;BMP180;10584;50.854;12.902;2023-06-22T01:01:42;98438.00;;;17.60
20848;BMP180;10584;50.854;12.902;2023-06-22T01:07:52;98441.00;;;17.60
20848;BMP180;10584;50.854;12.902;2023-06-22T01:13:32;98433.00;;;17.50
20848;BMP180;10584;50.854;12.902;2023-06-22T01:30:29;98427.00;;;17.30
20848;BMP180;10584;50.854;12.902;2023-06-22T01:35:54;98439.00;;;17.20
20848;BMP180;10584;50.854;12.902;2023-06-22T01:41:30;98444.00;;;17.20
20848;BMP180;10584;50.854;12.902;2023-06-22T01:47:02;98421.00;;;17.10
20848;BMP180;10584;50.854;12.902;2023-06-22T01:52:46;98410.00;;;17.10
20848;BMP180;10584;50.854;12.902;2023-06-22T01:58:36;98410.00;;;17.00
20848;BMP180;10584;50.854;12.902;2023-06-22T02:04:21;98402.00;;;16.90
20848;BMP180;10584;50.854;12.902;2023-06-22T02:09:56;98412.00;;;16.90
20848;BMP180;10584;50.854;12.902;2023-06-22T02:15:18;98419.00;;;16.80
20848;BMP180;10584;50.854;12.902;2023-06-22T02:20:40;98440.00;;;16.80
20848;BMP180;10584;50.854;12.902;2023-06-22T02:26:08;98427.00;;;16.70
20848;BMP180;10584;50.854;12.902;2023-06-22T02:32:05;98431.00;;;16.70
20848;BMP180;10584;50.854;12.902;2023-06-22T02:37:48;98423.00;;;16.60
20848;BMP180;10584;50.854;12.902;2023-06-22T02:43:31;98419.00;;;16.50
20848;BMP180;10584;50.854;12.902;2023-06-22T02:49:12;98403.00;;;16.50
20848;BMP180;10584;50.854;12.902;2023-06-22T02:54:39;98401.00;;;16.40
20848;BMP180;10584;50.854;12.902;2023-06-22T03:00:03;98410.00;;;16.40
20848;BMP180;10584;50.854;12.902;2023-06-22T03:05:47;98418.00;;;16.40
20848;BMP180;10584;50.854;12.902;2023-06-22T03:11:30;98410.00;;;16.30
20848;BMP180;10584;50.854;12.902;2023-06-22T03:17:18;98408.00;;;16.30
20848;BMP180;10584;50.854;12.902;2023-06-22T03:23:01;98407.00;;;16.30
20848;BMP180;10584;50.854;12.902;2023-06-22T03:28:29;98388.00;;;16.30
20848;BMP180;10584;50.854;12.902;2023-06-22T03:34:06;98402.00;;;16.20
20848;BMP180;10584;50.854;12.902;2023-06-22T03:39:33;98404.00;;;16.30
20848;BMP180;10584;50.854;12.902;2023-06-22T03:44:54;98390.00;;;16.30
20848;BMP180;10584;50.854;12.902;2023-06-22T03:50:16;98406.00;;;16.30
20848;BMP180;10584;50.854;12.902;2023-06-22T03:55:40;98400.00;;;16.30
20848;BMP180;10584;50.854;12.902;2023-06-22T04:01:02;98398.00;;;16.40
20848;BMP180;10584;50.854;12.902;2023-06-22T04:06:26;98424.00;;;16.50
20848;BMP180;10584;50.854;12.902;2023-06-22T04:12:04;98446.00;;;16.60
20848;BMP180;10584;50.854;12.902;2023-06-22T04:17:35;98463.00;;;16.70
20848;BMP180;10584;50.854;12.902;2023-06-22T04:23:15;98481.00;;;16.90
20848;BMP180;10584;50.854;12.902;2023-06-22T04:28:59;98494.00;;;17.10
20848;BMP180;10584;50.854;12.902;2023-06-22T04:34:29;98520.00;;;17.30
20848;BMP180;10584;50.854;12.902;2023-06-22T04:39:51;98523.00;;;17.50
20848;BMP180;10584;50.854;12.902;2023-06-22T04:45:13;98519.00;;;17.70
20848;BMP180;10584;50.854;12.902;2023-06-22T04:50:35;98519.00;;;18.00
20848;BMP180;10584;50.854;12.902;2023-06-22T04:55:58;98499.00;;;18.20
20848;BMP180;10584;50.854;12.902;2023-06-22T05:01:51;98481.00;;;18.60
20848;BMP180;10584;50.854;12.902;2023-06-22T05:07:35;98485.00;;;18.90
20848;BMP180;10584;50.854;12.902;2023-06-22T05:13:05;98477.00;;;19.10
20848;BMP180;10584;50.854;12.902;2023-06-22T05:18:40;98478.00;;;19.50
20848;BMP180;10584;50.854;12.902;2023-06-22T05:24:04;98477.00;;;19.90
20848;BMP180;10584;50.854;12.902;2023-06-22T05:29:32;98472.00;;;20.10
20848;BMP180;10584;50.854;12.902;2023-06-22T05:34:53;98448.00;;;20.30
20848;BMP180;10584;50.854;12.902;2023-06-22T05:40:15;98376.00;;;20.40
20848;BMP180;10584;50.854;12.902;2023-06-22T05:45:37;98283.00;;;20.60
20848;BMP180;10584;50.854;12.902;2023-06-22T05:51:00;98259.00;;;20.80
20848;BMP180;10584;50.854;12.902;2023-06-22T05:56:50;98312.00;;;21.10
20848;BMP180;10584;50.854;12.902;2023-06-22T06:02:19;98314.00;;;21.30
20848;BMP180;10584;50.854;12.902;2023-06-22T06:08:03;98320.00;;;21.40
20848;BMP180;10584;50.854;12.902;2023-06-22T06:13:33;98345.00;;;21.70
20848;BMP180;10584;50.854;12.902;2023-06-22T06:19:04;98354.00;;;22.10
20848;BMP180;10584;50.854;12.902;2023-06-22T06:24:32;98344.00;;;22.60
20848;BMP180;10584;50.854;12.902;2023-06-22T06:29:53;98347.00;;;23.20
20848;BMP180;10584;50.854;12.902;2023-06-22T06:35:16;98357.00;;;23.50
20848;BMP180;10584;50.854;12.902;2023-06-22T06:40:38;98353.00;;;23.70
20848;BMP180;10584;50.854;12.902;2023-06-22T06:46:07;98363.00;;;23.80
20848;BMP180;10584;50.854;12.902;2023-06-22T06:52:00;98366.00;;;23.90
20848;BMP180;10584;50.854;12.902;2023-06-22T06:57:47;98370.00;;;24.20
20848;BMP180;10584;50.854;12.902;2023-06-22T07:03:39;98377.00;;;24.70
20848;BMP180;10584;50.854;12.902;2023-06-22T07:09:29;98371.00;;;25.00
20848;BMP180;10584;50.854;12.902;2023-06-22T07:15:05;98373.00;;;25.30
20848;BMP180;10584;50.854;12.902;2023-06-22T07:20:26;98373.00;;;25.60
20848;BMP180;10584;50.854;12.902;2023-06-22T07:25:54;98381.00;;;25.90
20848;BMP180;10584;50.854;12.902;2023-06-22T07:31:30;98368.00;;;26.30
20848;BMP180;10584;50.854;12.902;2023-06-22T07:37:19;98362.00;;;26.40
20848;BMP180;10584;50.854;12.902;2023-06-22T07:43:02;98362.00;;;26.60
20848;BMP180;10584;50.854;12.902;2023-06-22T07:48:28;98364.00;;;26.80
20848;BMP180;10584;50.854;12.902;2023-06-22T07:54:06;98361.00;;;27.20
20848;BMP180;10584;50.854;12.902;2023-06-22T07:59:33;98360.00;;;27.40
20848;BMP180;10584;50.854;12.902;2023-06-22T08:05:00;98351.00;;;27.60
20848;BMP180;10584;50.854;12.902;2023-06-22T08:11:27;98357.00;;;27.70
20848;BMP180;10584;50.854;12.902;2023-06-22T08:17:03;98349.00;;;28.00
20848;BMP180;10584;50.854;12.902;2023-06-22T08:22:59;98350.00;;;28.00
20848;BMP180;10584;50.854;12.902;2023-06-22T08:28:43;98340.00;;;28.20
20848;BMP180;10584;50.854;12.902;2023-06-22T08:34:17;98342.00;;;28.30
20848;BMP180;10584;50.854;12.902;2023-06-22T08:39:48;98338.00;;;28.50
20848;BMP180;10584;50.854;12.902;2023-06-22T08:45:10;98336.00;;;28.70
20848;BMP180;10584;50.854;12.902;2023-06-22T08:50:31;98334.00;;;28.60
20848;BMP180;10584;50.854;12.902;2023-06-22T08:56:00;98334.00;;;28.70
20848;BMP180;10584;50.854;12.902;2023-06-22T09:01:55;98331.00;;;28.70
20848;BMP180;10584;50.854;12.902;2023-06-22T09:07:38;98338.00;;;28.80
20848;BMP180;10584;50.854;12.902;2023-06-22T09:13:11;98333.00;;;29.00
20848;BMP180;10584;50.854;12.902;2023-06-22T09:18:53;98328.00;;;29.00
20848;BMP180;10584;50.854;12.902;2023-06-22T09:24:19;98330.00;;;29.10
20848;BMP180;10584;50.854;12.902;2023-06-22T09:29:46;98311.00;;;29.20
20848;BMP180;10584;50.854;12.902;2023-06-22T09:35:08;98314.00;;;29.30
20848;BMP180;10584;50.854;12.902;2023-06-22T09:40:33;98308.00;;;29.40
20848;BMP180;10584;50.854;12.902;2023-06-22T09:46:06;98309.00;;;29.50
20848;BMP180;10584;50.854;12.902;2023-06-22T09:51:57;98302.00;;;29.60
20848;BMP180;10584;50.854;12.902;2023-06-22T09:57:46;98297.00;;;29.40
20848;BMP180;10584;50.854;12.902;2023-06-22T10:03:24;98300.00;;;29.50
20848;BMP180;10584;50.854;12.902;2023-06-22T10:09:09;98287.00;;;29.90
20848;BMP180;10584;50.854;12.902;2023-06-22T10:14:41;98301.00;;;29.80
20848;BMP180;10584;50.854;12.902;2023-06-22T10:20:06;98302.00;;;30.00
20848;BMP180;10584;50.854;12.902;2023-06-22T10:25:34;98298.00;;;30.10
20848;BMP180;10584;50.854;12.902;2023-06-22T10:31:01;98286.00;;;30.20
20848;BMP180;10584;50.854;12.902;2023-06-22T10:36:49;98283.00;;;30.30
20848;BMP180;10584;50.854;12.902;2023-06-22T10:42:34;98279.00;;;30.30
20848;BMP180;10584;50.854;12.902;2023-06-22T10:48:15;98266.00;;;30.40
20848;BMP180;10584;50.854;12.902;2023-06-22T10:53:50;98265.00;;;30.60
20848;BMP180;10584;50.854;12.902;2023-06-22T10:59:14;98258.00;;;30.50
20848;BMP180;10584;50.854;12.902;2023-06-22T11:04:50;98261.00;;;30.60
20848;BMP180;10584;50.854;12.902;2023-06-22T11:10:25;98250.00;;;30.50
20848;BMP180;10584;50.854;12.902;2023-06-22T11:16:07;98254.00;;;30.30
20848;BMP180;10584;50.854;12.902;2023-06-22T11:22:00;98248.00;;;30.40
20848;BMP180;10584;50.854;12.902;2023-06-22T11:27:43;98242.00;;;30.80
20848;BMP180;10584;50.854;12.902;2023-06-22T11:33:38;98240.00;;;30.50
20848;BMP180;10584;50.854;12.902;2023-06-22T11:39:13;98231.00;;;30.70
20848;BMP180;10584;50.854;12.902;2023-06-22T11:44:50;98237.00;;;31.00
20848;BMP180;10584;50.854;12.902;2023-06-22T11:50:12;98225.00;;;31.10
20848;BMP180;10584;50.854;12.902;2023-06-22T11:55:33;98207.00;;;31.30
20848;BMP180;10584;50.854;12.902;2023-06-22T12:00:55;98207.00;;;31.20
20848;BMP180;10584;50.854;12.902;2023-06-22T12:06:27;98202.00;;;31.20
20848;BMP180;10584;50.854;12.902;2023-06-22T12:12:13;98190.00;;;31.40
20848;BMP180;10584;50.854;12.902;2023-06-22T12:17:41;98183.00;;;31.50
20848;BMP180;10584;50.854;12.902;2023-06-22T12:23:12;98175.00;;;31.60
20848;BMP180;10584;50.854;12.902;2023-06-22T12:28:44;98178.00;;;31.80
20848;BMP180;10584;50.854;12.902;2023-06-22T12:34:07;98160.00;;;31.70
20848;BMP180;10584;50.854;12.902;2023-06-22T12:39:35;98164.00;;;31.70
20848;BMP180;10584;50.854;12.902;2023-06-22T12:44:57;98160.00;;;31.60
20848;BMP180;10584;50.854;12.902;2023-06-22T12:50:18;98149.00;;;31.70
20848;BMP180;10584;50.854;12.902;2023-06-22T12:55:40;98145.00;;;31.60
20848;BMP180;10584;50.854;12.902;2023-06-22T13:01:02;98140.00;;;31.70
20848;BMP180;10584;50.854;12.902;2023-06-22T13:06:29;98125.00;;;31.60
20848;BMP180;10584;50.854;12.902;2023-06-22T13:11:56;98122.00;;;31.70
20848;BMP180;10584;50.854;12.902;2023-06-22T13:17:18;98120.00;;;31.50
20848;BMP180;10584;50.854;12.902;2023-06-22T13:23:02;98111.00;;;31.70
20848;BMP180;10584;50.854;12.902;2023-06-22T13:28:35;98121.00;;;31.60
20848;BMP180;10584;50.854;12.902;2023-06-22T13:34:14;98102.00;;;31.70
20848;BMP180;10584;50.854;12.902;2023-06-22T13:39:42;98099.00;;;31.70
20848;BMP180;10584;50.854;12.902;2023-06-22T13:45:04;98094.00;;;31.80
20848;BMP180;10584;50.854;12.902;2023-06-22T13:50:26;98094.00;;;31.50
20848;BMP180;10584;50.854;12.902;2023-06-22T13:55:56;98085.00;;;31.30
20848;BMP180;10584;50.854;12.902;2023-06-22T14:01:36;98077.00;;;31.30
20848;BMP180;10584;50.854;12.902;2023-06-22T14:07:00;98064.00;;;31.50
20848;BMP180;10584;50.854;12.902;2023-06-22T14:12:26;98053.00;;;31.50
20848;BMP180;10584;50.854;12.902;2023-06-22T14:18:11;98047.00;;;31.60
20848;BMP180;10584;50.854;12.902;2023-06-22T14:23:46;98040.00;;;31.30
20848;BMP180;10584;50.854;12.902;2023-06-22T14:29:18;98024.00;;;31.30
20848;BMP180;10584;50.854;12.902;2023-06-22T14:34:44;98027.00;;;31.60
20848;BMP180;10584;50.854;12.902;2023-06-22T14:40:06;98009.00;;;31.90
20848;BMP180;10584;50.854;12.902;2023-06-22T14:45:27;98003.00;;;31.90
20848;BMP180;10584;50.854;12.902;2023-06-22T14:50:57;97992.00;;;31.80
20848;BMP180;10584;50.854;12.902;2023-06-22T14:56:50;97988.00;;;31.70
20848;BMP180;10584;50.854;12.902;2023-06-22T15:02:39;97991.00;;;31.60
20848;BMP180;10584;50.854;12.902;2023-06-22T15:08:02;97985.00;;;31.60
20848;BMP180;10584;50.854;12.902;2023-06-22T15:13:33;97988.00;;;31.50
20848;BMP180;10584;50.854;12.902;2023-06-22T15:19:09;97972.00;;;31.80
20848;BMP180;10584;50.854;12.902;2023-06-22T15:24:38;97961.00;;;31.80
20848;BMP180;10584;50.854;12.902;2023-06-22T15:29:59;97957.00;;;31.80
20848;BMP180;10584;50.854;12.902;2023-06-22T15:35:21;97957.00;;;31.60
20848;BMP180;10584;50.854;12.902;2023-06-22T15:40:43;97937.00;;;31.30
20848;BMP180;10584;50.854;12.902;2023-06-22T15:46:16;97931.00;;;31.10
20848;BMP180;10584;50.854;12.902;2023-06-22T15:51:51;97927.00;;;31.00
20848;BMP180;10584;50.854;12.902;2023-06-22T15:57:17;97921.00;;;30.90
20848;BMP180;10584;50.854;12.902;2023-06-22T16:03:04;97916.00;;;30.90
20848;BMP180;10584;50.854;12.902;2023-06-22T16:08:50;97908.00;;;30.60
20848;BMP180;10584;50.854;12.902;2023-06-22T16:14:24;97917.00;;;30.70
20848;BMP180;10584;50.854;12.902;2023-06-22T16:19:45;97913.00;;;30.60
20848;BMP180;10584;50.854;12.902;2023-06-22T16:25:10;97905.00;;;30.30
20848;BMP180;10584;50.854;12.902;2023-06-22T16:30:33;97883.00;;;30.20
20848;BMP180;10584;50.854;12.902;2023-06-22T16:36:00;97880.00;;;30.30
20848;BMP180;10584;50.854;12.902;2023-06-22T16:41:48;97872.00;;;30.60
20848;BMP180;10584;50.854;12.902;2023-06-22T16:47:33;97864.00;;;30.50
20848;BMP180;10584;50.854;12.902;2023-06-22T16:53:12;97860.00;;;30.50
20848;BMP180;10584;50.854;12.902;2023-06-22T16:58:57;97847.00;;;30.40
20848;BMP180;10584;50.854;12.902;2023-06-22T17:04:36;97830.00;;;30.00
20848;BMP180;10584;50.854;12.902;2023-06-22T17:10:21;97818.00;;;30.00
20848;BMP180;10584;50.854;12.902;2023-06-22T17:15:44;97814.00;;;29.70
20848;BMP180;10584;50.854;12.902;2023-06-22T17:21:24;97810.00;;;29.70
20848;BMP180;10584;50.854;12.902;2023-06-22T17:27:02;97813.00;;;29.50
20848;BMP180;10584;50.854;12.902;2023-06-22T17:33:01;97799.00;;;29.30
20848;BMP180;10584;50.854;12.902;2023-06-22T17:38:37;97794.00;;;29.20
20848;BMP180;10584;50.854;12.902;2023-06-22T17:44:01;97762.00;;;28.90
20848;BMP180;10584;50.854;12.902;2023-06-22T17:49:31;97753.00;;;28.70
20848;BMP180;10584;50.854;12.902;2023-06-22T17:54:53;97755.00;;;28.60
20848;BMP180;10584;50.854;12.902;2023-06-22T18:00:32;97766.00;;;28.40
20848;BMP180;10584;50.854;12.902;2023-06-22T18:05:59;97746.00;;;28.50
20848;BMP180;10584;50.854;12.902;2023-06-22T18:11:52;97742.00;;;28.40
20848;BMP180;10584;50.854;12.902;2023-06-22T18:17:37;97735.00;;;28.50
20848;BMP180;10584;50.854;12.902;2023-06-22T18:23:20;97730.00;;;28.40
20848;BMP180;10584;50.854;12.902;2023-06-22T18:29:00;97719.00;;;28.30
20848;BMP180;10584;50.854;12.902;2023-06-22T18:34:29;97726.00;;;28.20
20848;BMP180;10584;50.854;12.902;2023-06-22T18:39:56;97716.00;;;28.10
20848;BMP180;10584;50.854;12.902;2023-06-22T18:45:23;97715.00;;;28.00
20848;BMP180;10584;50.854;12.902;2023-06-22T18:50:45;97715.00;;;27.90
20848;BMP180;10584;50.854;12.902;2023-06-22T18:56:25;97736.00;;;27.70
20848;BMP180;10584;50.854;12.902;2023-06-22T19:02:03;97724.00;;;27.60
20848;BMP180;10584;50.854;12.902;2023-06-22T19:07:56;97726.00;;;27.40
20848;BMP180;10584;50.854;12.902;2023-06-22T19:13:46;97724.00;;;27.40
20848;BMP180;10584;50.854;12.902;2023-06-22T19:19:42;97701.00;;;27.30
20848;BMP180;10584;50.854;12.902;2023-06-22T19:25:19;97684.00;;;27.10
20848;BMP180;10584;50.854;12.902;2023-06-22T19:30:41;97691.00;;;27.00
20848;BMP180;10584;50.854;12.902;2023-06-22T19:36:21;97693.00;;;27.00
20848;BMP180;10584;50.854;12.902;2023-06-22T19:41:59;97681.00;;;26.70
20848;BMP180;10584;50.854;12.902;2023-06-22T19:48:04;97679.00;;;26.80
20848;BMP180;10584;50.854;12.902;2023-06-22T19:53:39;97671.00;;;26.70
20848;BMP180;10584;50.854;12.902;2023-06-22T19:59:15;97662.00;;;26.60
20848;BMP180;10584;50.854;12.902;2023-06-22T20:04:52;97658.00;;;26.50
20848;BMP180;10584;50.854;12.902;2023-06-22T20:10:37;97650.00;;;26.50
20848;BMP180;10584;50.854;12.902;2023-06-22T20:16:14;97667.00;;;26.50
20848;BMP180;10584;50.854;12.902;2023-06-22T20:22:03;97684.00;;;26.60
20848;BMP180;10584;50.854;12.902;2023-06-22T20:27:48;97703.00;;;26.60
20848;BMP180;10584;50.854;12.902;2023-06-22T20:33:37;97708.00;;;26.50
20848;BMP180;10584;50.854;12.902;2023-06-22T20:39:18;97685.00;;;26.50
20848;BMP180;10584;50.854;12.902;2023-06-22T20:44:45;97670.00;;;26.50
20848;BMP180;10584;50.854;12.902;2023-06-22T20:50:12;97680.00;;;26.60
20848;BMP180;10584;50.854;12.902;2023-06-22T20:55:34;97657.00;;;26.70
20848;BMP180;10584;50.854;12.902;2023-06-22T21:00:59;97642.00;;;26.80
20848;BMP180;10584;50.854;12.902;2023-06-22T21:06:29;97679.00;;;26.70
20848;BMP180;10584;50.854;12.902;2023-06-22T21:12:03;97736.00;;;26.50
20848;BMP180;10584;50.854;12.902;2023-06-22T21:17:54;97785.00;;;26.00
20848;BMP180;10584;50.854;12.902;2023-06-22T21:23:40;97792.00;;;24.50
20848;BMP180;10584;50.854;12.902;2023-06-22T21:29:07;97817.00;;;24.20
20848;BMP180;10584;50.854;12.902;2023-06-22T21:34:34;97804.00;;;23.60
20848;BMP180;10584;50.854;12.902;2023-06-22T21:39:56;97810.00;;;22.90
20848;BMP180;10584;50.854;12.902;2023-06-22T21:45:17;97850.00;;;23.20
20848;BMP180;10584;50.854;12.902;2023-06-22T21:50:39;97936.00;;;22.50
20848;BMP180;10584;50.854;12.902;2023-06-22T21:56:08;97941.00;;;21.80
20848;BMP180;10584;50.854;12.902;2023-06-22T22:01:57;97933.00;;;21.10
20848;BMP180;10584;50.854;12.902;2023-06-22T22:07:37;97890.00;;;20.60
20848;BMP180;10584;50.854;12.902;2023-06-22T22:13:21;97851.00;;;20.60
20848;BMP180;10584;50.854;12.902;2023-06-22T22:19:07;97877.00;;;20.60
20848;BMP180;10584;50.854;12.902;2023-06-22T22:24:35;97910.00;;;20.10
20848;BMP180;10584;50.854;12.902;2023-06-22T22:29:56;97907.00;;;20.10
20848;BMP180;10584;50.854;12.902;2023-06-22T22:35:18;97843.00;;;20.00
20848;BMP180;10584;50.854;12.902;2023-06-22T22:40:39;97785.00;;;19.80
20848;BMP180;10584;50.854;12.902;2023-06-22T22:46:09;97798.00;;;20.00
20848;BMP180;10584;50.854;12.902;2023-06-22T22:52:09;97845.00;;;20.00
20848;BMP180;10584;50.854;12.902;2023-06-22T22:57:52;97868.00;;;20.00
20848;BMP180;10584;50.854;12.902;2023-06-22T23:03:36;97932.00;;;19.90
20848;BMP180;10584;50.854;12.902;2023-06-22T23:09:08;97968.00;;;19.80
20848;BMP180;10584;50.854;12.902;2023-06-22T23:14:29;97978.00;;;19.70
20848;BMP180;10584;50.854;12.902;2023-06-22T23:19:54;97994.00;;;19.60
20848;BMP180;10584;50.854;12.902;2023-06-22T23:25:16;98002.00;;;19.60
20848;BMP180;10584;50.854;12.902;2023-06-22T23:30:37;97990.00;;;19.60
20848;BMP180;10584;50.854;12.902;2023-06-22T23:36:01;97950.00;;;19.60
20848;BMP180;10584;50.854;12.902;2023-06-22T23:41:53;97958.00;;;19.80
20848;BMP180;10584;50.854;12.902;2023-06-22T23:47:37;97994.00;;;19.70
20848;BMP180;10584;50.854;12.902;2023-06-22T23:53:21;97907.00;;;19.70
20848;BMP180;10584;50.854;12.902;2023-06-22T23:59:05;97864.00;;;19.80
